Time;durP1;ratioP1;P1;durP2;ratioP2;P2;SDS_P1;SDS_P2;PMS_P1;PMS_P2;Temp;Humidity;BMP_temperature;BMP_pressure;BME280_temperature;BME280_humidity;BME280_pressure;Samples;Min_cycle;Max_cycle;Signal;HPM_P1;HPM_P2
2022/08/20 00:00:13;;;;;;;;;;;;;;;-144.99;92.13;52244.28;5007455;28;20534;-76
2022/08/20 00:02:40;;;;;;;;;;;;;;;-144.99;91.87;52252.44;5007459;28;20043;-76
2022/08/20 00:05:06;;;;;;;;;;;;;;;-144.99;91.96;52246.31;4999521;28;19934;-74
2022/08/20 00:07:33;;;;;;;;;;;;;;;-144.99;91.78;52256.50;5006313;28;20377;-74
2022/08/20 00:10:01;;;;;;;;;;;;;;;-144.99;90.77;52260.56;5011267;28;19921;-76
2022/08/20 00:12:27;;;;;;;;;;;;;;;-144.99;90.44;52252.44;5011039;28;19930;-74
2022/08/20 00:14:53;;;;;;;;;;;;;;;-144.99;90.28;52232.03;5011158;28;19921;-75
2022/08/20 00:17:20;;;;;;;;;;;;;;;-144.99;89.97;52223.88;5009812;28;19930;-73
2022/08/20 00:19:46;;;;;;;;;;;;;;;-144.99;89.69;52260.56;5011131;28;19922;-73
2022/08/20 00:22:12;;;;;;;;;;;;;;;-144.99;89.13;52276.88;5010894;28;19926;-74
2022/08/20 00:24:39;;;;;;;;;;;;;;;-144.99;88.96;52254.47;5013989;28;19933;-74
2022/08/20 00:27:07;;;;;;;;;;;;;;;-144.99;88.73;52287.06;5010681;28;19989;-74
2022/08/20 00:29:33;;;;;;;;;;;;;;;-144.99;88.29;52246.31;5011890;28;20331;-74
2022/08/20 00:31:59;;;;;;;;;;;;;;;-144.99;88.78;52236.13;5009748;28;19925;-73
2022/08/20 00:34:26;;;;;;;;;;;;;;;-144.99;87.55;52236.13;5010823;28;19972;-74
2022/08/20 00:36:52;;;;;;;;;;;;;;;-144.99;87.37;52232.03;5009904;28;19925;-74
2022/08/20 00:39:19;;;;;;;;;;;;;;;-144.99;86.93;52254.47;5008240;28;20015;-74
2022/08/20 00:41:45;;;;;;;;;;;;;;;-144.99;87.34;52270.78;5011434;28;19921;-71
2022/08/20 00:44:15;;;;;;;;;;;;;;;-144.99;86.47;52285.03;5011586;28;19926;-72
2022/08/20 00:46:43;;;;;;;;;;;;;;;-144.99;85.75;52244.28;5008502;28;20464;-74
2022/08/20 00:49:14;;;;;;;;;;;;;;;-144.99;85.53;52252.44;5006566;28;20300;-74
2022/08/20 00:51:42;;;;;;;;;;;;;;;-144.99;86.14;52280.97;5009871;28;19957;-73
2022/08/20 00:54:11;;;;;;;;;;;;;;;-144.99;86.83;52250.38;5013780;28;19928;-73
2022/08/20 00:56:37;;;;;;;;;;;;;;;-144.99;87.06;52285.03;5009344;28;19945;-74
2022/08/20 00:59:05;;;;;;;;;;;;;;;-144.99;87.16;52256.50;5012193;28;19961;-76
2022/08/20 01:01:33;;;;;;;;;;;;;;;-144.99;86.04;52264.66;5011188;28;19925;-73
2022/08/20 01:04:00;;;;;;;;;;;;;;;-144.99;85.77;52254.47;5013972;28;20012;-73
2022/08/20 01:06:27;;;;;;;;;;;;;;;-144.99;85.27;52252.44;5007490;28;19922;-73
2022/08/20 01:08:54;;;;;;;;;;;;;;;-144.99;84.79;52246.31;5008888;28;19926;-74
2022/08/20 01:11:26;;;;;;;;;;;;;;;-144.99;84.06;52252.44;5006260;28;19926;-73
2022/08/20 01:13:53;;;;;;;;;;;;;;;-144.99;84.29;52232.03;5009015;28;20018;-74
2022/08/20 01:16:23;;;;;;;;;;;;;;;-144.99;85.10;52244.28;5008620;28;19926;-74
2022/08/20 01:18:51;;;;;;;;;;;;;;;-144.99;85.94;52260.56;5004253;28;19926;-73
2022/08/20 01:21:21;;;;;;;;;;;;;;;-144.99;85.53;52305.41;5008169;28;20138;-73
2022/08/20 01:23:50;;;;;;;;;;;;;;;-144.99;84.50;52309.50;4991272;28;19922;-72
2022/08/20 01:26:21;;;;;;;;;;;;;;;-144.99;84.28;52289.13;5009306;28;19964;-73
2022/08/20 01:28:51;;;;;;;;;;;;;;;-144.99;84.12;52285.03;5007485;28;19965;-73
2022/08/20 01:31:18;;;;;;;;;;;;;;;-144.99;83.64;52280.97;5006788;28;19926;-73
2022/08/20 01:33:45;;;;;;;;;;;;;;;-144.99;83.21;52270.78;5008552;28;19925;-74
2022/08/20 01:36:14;;;;;;;;;;;;;;;-144.99;83.20;52272.81;5008949;28;19928;-73
2022/08/20 01:38:41;;;;;;;;;;;;;;;-144.99;83.20;52276.88;5002864;28;19921;-73
2022/08/20 01:41:14;;;;;;;;;;;;;;;-144.99;83.42;52262.63;5008036;28;20678;-74
2022/08/20 01:43:41;;;;;;;;;;;;;;;-144.99;83.33;52252.44;5008543;28;19945;-73
2022/08/20 01:46:09;;;;;;;;;;;;;;;-144.99;83.67;52278.91;5007303;28;20041;-74
2022/08/20 01:48:35;;;;;;;;;;;;;;;-144.99;83.89;52264.66;5006973;28;20592;-75
2022/08/20 01:51:04;;;;;;;;;;;;;;;-144.99;84.06;52317.66;5004018;28;19944;-74
2022/08/20 01:53:33;;;;;;;;;;;;;;;-144.99;84.13;52297.25;5000147;28;19961;-74
2022/08/20 01:56:00;;;;;;;;;;;;;;;-144.99;84.94;52309.50;5009380;28;20292;-73
2022/08/20 01:58:28;;;;;;;;;;;;;;;-144.99;85.26;52289.13;5007343;28;19925;-73
2022/08/20 02:00:56;;;;;;;;;;;;;;;-144.99;85.55;52283.00;5008478;28;19925;-73
2022/08/20 02:03:23;;;;;;;;;;;;;;;-144.99;85.77;52291.16;5008582;28;19921;-74
2022/08/20 02:05:49;;;;;;;;;;;;;;;-144.99;85.88;52260.56;5008340;28;19937;-73
2022/08/20 02:08:15;;;;;;;;;;;;;;;-144.99;86.39;52280.97;5006160;28;20143;-73
2022/08/20 02:10:45;;;;;;;;;;;;;;;-144.99;87.44;52299.31;5008612;28;19964;-74
2022/08/20 02:13:12;;;;;;;;;;;;;;;-144.99;88.22;52256.50;5003844;28;20403;-74
2022/08/20 02:15:39;;;;;;;;;;;;;;;-144.99;87.48;52291.16;5008224;28;20072;-73
2022/08/20 02:18:07;;;;;;;;;;;;;;;-144.99;87.92;52256.50;5008719;28;20008;-74
2022/08/20 02:20:34;;;;;;;;;;;;;;;-144.99;90.46;52301.34;5005998;28;19932;-74
2022/08/20 02:23:01;;;;;;;;;;;;;;;-144.99;90.95;52268.72;5005824;28;20431;-74
2022/08/20 02:25:30;;;;;;;;;;;;;;;-144.99;91.26;52248.34;5007915;28;19953;-74
2022/08/20 02:27:57;;;;;;;;;;;;;;;-144.99;91.97;52260.56;5007946;28;19941;-75
2022/08/20 02:30:26;;;;;;;;;;;;;;;-144.99;94.38;52287.06;5006307;28;19926;-77
2022/08/20 02:32:52;;;;;;;;;;;;;;;-144.99;96.27;52301.34;5004028;28;19933;-75
2022/08/20 02:35:20;;;;;;;;;;;;;;;-144.99;97.36;52305.41;5008086;28;20397;-74
2022/08/20 02:37:46;;;;;;;;;;;;;;;-144.99;97.98;52272.81;5008401;28;20367;-73
2022/08/20 02:40:14;;;;;;;;;;;;;;;-144.99;98.83;52289.13;5005532;28;19925;-73
2022/08/20 02:42:42;;;;;;;;;;;;;;;-144.99;100.00;52289.13;5007387;28;20608;-74
2022/08/20 02:45:09;;;;;;;;;;;;;;;-144.99;100.00;52303.38;5008129;28;19925;-74
2022/08/20 02:47:36;;;;;;;;;;;;;;;-144.99;100.00;52297.25;4662449;28;9999735;-74
2022/08/20 02:50:03;;;;;;;;;;;;;;;-144.99;100.00;52276.88;5006401;28;19933;-75
2022/08/20 02:52:31;;;;;;;;;;;;;;;-144.99;100.00;52297.25;5008060;28;19933;-74
2022/08/20 02:54:57;;;;;;;;;;;;;;;-144.99;100.00;52293.19;5007913;28;19926;-75
2022/08/20 02:57:24;;;;;;;;;;;;;;;-144.99;100.00;52256.50;5009274;28;20297;-74
2022/08/20 02:59:51;;;;;;;;;;;;;;;-144.99;100.00;52313.56;5008739;28;19928;-74
2022/08/20 03:02:17;;;;;;;;;;;;;;;-144.99;100.00;52280.97;5009489;28;20005;-75
2022/08/20 03:04:44;;;;;;;;;;;;;;;-144.99;100.00;52248.34;5011608;28;19947;-74
2022/08/20 03:07:11;;;;;;;;;;;;;;;-144.99;100.00;52248.34;5011524;28;20300;-75
2022/08/20 03:09:38;;;;;;;;;;;;;;;-144.99;100.00;52283.00;5012189;28;20036;-75
2022/08/20 03:12:06;;;;;;;;;;;;;;;-144.99;100.00;52268.72;5010201;28;20388;-75
2022/08/20 03:14:33;;;;;;;;;;;;;;;-144.99;100.00;52297.25;5011956;28;19999;-73
2022/08/20 03:16:59;;;;;;;;;;;;;;;-144.99;100.00;52268.72;5016868;28;19925;-74
2022/08/20 03:19:25;;;;;;;;;;;;;;;-144.99;100.00;52260.56;5006255;28;20412;-73
2022/08/20 03:21:52;;;;;;;;;;;;;;;-144.99;100.00;52262.63;5007010;28;19983;-74
2022/08/20 03:24:19;;;;;;;;;;;;;;;-144.99;100.00;52280.97;5010285;28;20404;-74
2022/08/20 03:26:47;;;;;;;;;;;;;;;-144.99;100.00;52264.66;5010570;28;19921;-76
2022/08/20 03:29:13;;;;;;;;;;;;;;;-144.99;100.00;52272.81;5011514;28;19922;-76
2022/08/20 03:31:40;;;;;;;;;;;;;;;-144.99;100.00;52293.19;5008956;28;19921;-75
2022/08/20 03:34:07;;;;;;;;;;;;;;;-144.99;100.00;52285.03;5011799;28;19921;-76
2022/08/20 03:36:33;;;;;;;;;;;;;;;-144.99;100.00;52272.81;5010587;28;19922;-76
2022/08/20 03:39:00;;;;;;;;;;;;;;;-144.99;100.00;52262.63;5010058;28;19926;-74
2022/08/20 03:41:27;;;;;;;;;;;;;;;-144.99;100.00;52252.44;5010166;28;19945;-75
2022/08/20 03:43:56;;;;;;;;;;;;;;;-144.99;100.00;52278.91;5008837;28;19928;-74
2022/08/20 03:46:22;;;;;;;;;;;;;;;-144.99;100.00;52285.03;5007831;28;19922;-76
2022/08/20 03:48:48;;;;;;;;;;;;;;;-144.99;100.00;52256.50;5010266;28;20343;-77
2022/08/20 03:51:15;;;;;;;;;;;;;;;-144.99;100.00;52285.03;5009870;28;19944;-76
2022/08/20 03:53:41;;;;;;;;;;;;;;;-144.99;100.00;52232.03;5006773;28;20308;-74
2022/08/20 03:56:08;;;;;;;;;;;;;;;-144.99;100.00;52252.44;5011236;28;19964;-74
2022/08/20 03:58:34;;;;;;;;;;;;;;;-144.99;100.00;52266.69;5010086;28;20293;-75
2022/08/20 04:01:02;;;;;;;;;;;;;;;-144.99;100.00;52248.34;5009896;28;19922;-75
2022/08/20 04:03:28;;;;;;;;;;;;;;;-144.99;100.00;52264.66;5008386;28;19927;-74
2022/08/20 04:05:55;;;;;;;;;;;;;;;-144.99;100.00;52276.88;5005305;28;20270;-75
2022/08/20 04:08:25;;;;;;;;;;;;;;;-144.99;100.00;52268.72;5009094;28;19928;-75
2022/08/20 04:10:51;;;;;;;;;;;;;;;-144.99;100.00;52297.25;5010425;28;19957;-74
2022/08/20 04:13:18;;;;;;;;;;;;;;;-144.99;100.00;52268.72;5008618;28;19933;-74
2022/08/20 04:15:45;;;;;;;;;;;;;;;-144.99;100.00;52256.50;5010132;28;19922;-75
2022/08/20 04:18:14;;;;;;;;;;;;;;;-144.99;100.00;52268.72;5007280;28;20347;-74
2022/08/20 04:20:41;;;;;;;;;;;;;;;-144.99;100.00;52276.88;5010057;28;19925;-73
2022/08/20 04:23:08;;;;;;;;;;;;;;;-144.99;100.00;52293.19;5009715;28;20020;-72
2022/08/20 04:25:39;;;;;;;;;;;;;;;-144.99;100.00;52280.97;5008087;28;19940;-74
2022/08/20 04:28:07;;;;;;;;;;;;;;;-144.99;100.00;52303.38;5011644;28;19922;-76
2022/08/20 04:30:34;;;;;;;;;;;;;;;-144.99;100.00;52301.34;5011629;28;19921;-74
2022/08/20 04:33:00;;;;;;;;;;;;;;;-144.99;100.00;52256.50;5013332;28;20398;-72
2022/08/20 04:35:29;;;;;;;;;;;;;;;-144.99;100.00;52268.72;5015594;28;19921;-72
2022/08/20 04:37:59;;;;;;;;;;;;;;;-144.99;100.00;52219.81;5014082;28;19921;-74
2022/08/20 04:43:10;;;;;;;;;;;;;;;-144.99;100.00;52268.72;5021595;28;19940;-75
2022/08/20 04:45:36;;;;;;;;;;;;;;;-144.99;100.00;52276.88;5018710;28;19925;-75
2022/08/20 04:48:04;;;;;;;;;;;;;;;-144.99;100.00;52252.44;5012708;28;20016;-75
2022/08/20 04:50:35;;;;;;;;;;;;;;;-144.99;100.00;52252.44;5020468;28;20146;-76
2022/08/20 04:53:01;;;;;;;;;;;;;;;-144.99;100.00;52250.38;5022541;28;19929;-75
2022/08/20 04:55:27;;;;;;;;;;;;;;;-144.99;100.00;52280.97;5019797;28;19932;-75
2022/08/20 04:57:54;;;;;;;;;;;;;;;-144.99;100.00;52295.22;5016268;28;20288;-74
2022/08/20 05:00:21;;;;;;;;;;;;;;;-144.99;100.00;52260.56;5014435;28;20032;-75
2022/08/20 05:02:48;;;;;;;;;;;;;;;-144.99;100.00;52301.34;5013326;28;19921;-76
2022/08/20 05:05:14;;;;;;;;;;;;;;;-144.99;100.00;52264.66;5013965;28;19930;-76
2022/08/20 05:07:44;;;;;;;;;;;;;;;-144.99;100.00;52248.34;5013022;28;19932;-75
2022/08/20 05:10:12;;;;;;;;;;;;;;;-144.99;100.00;52240.19;5010165;28;19999;-76
2022/08/20 05:12:39;;;;;;;;;;;;;;;-144.99;100.00;52236.13;5013511;28;19922;-75
2022/08/20 05:15:06;;;;;;;;;;;;;;;-144.99;100.00;52270.78;5011860;28;19932;-75
2022/08/20 05:17:32;;;;;;;;;;;;;;;-144.99;100.00;52276.88;5013068;28;19921;-75
2022/08/20 05:19:59;;;;;;;;;;;;;;;-144.99;100.00;52276.88;5019757;28;19921;-73
2022/08/20 05:22:26;;;;;;;;;;;;;;;-144.99;100.00;52238.16;5012497;28;19929;-74
2022/08/20 05:24:55;;;;;;;;;;;;;;;-144.99;100.00;52232.03;5011763;28;20591;-73
2022/08/20 05:27:26;;;;;;;;;;;;;;;-144.99;100.00;52280.97;5026369;28;19921;-73
2022/08/20 05:29:52;;;;;;;;;;;;;;;-144.99;100.00;52301.34;5011853;28;20413;-74
2022/08/20 05:32:19;;;;;;;;;;;;;;;-144.99;100.00;52244.28;5009733;28;19925;-74
2022/08/20 05:34:45;;;;;;;;;;;;;;;-144.99;100.00;52256.50;5010650;28;19968;-74
2022/08/20 05:37:11;;;;;;;;;;;;;;;-144.99;100.00;52260.56;5014319;28;19991;-73
2022/08/20 05:39:38;;;;;;;;;;;;;;;-144.99;100.00;52248.34;5010407;28;19984;-73
2022/08/20 05:42:06;;;;;;;;;;;;;;;-144.99;100.00;52248.34;5010702;28;19991;-74
2022/08/20 05:44:36;;;;;;;;;;;;;;;-144.99;100.00;52248.34;5011432;28;20467;-73
2022/08/20 05:47:03;;;;;;;;;;;;;;;-144.99;100.00;52232.03;5001204;28;19929;-73
2022/08/20 05:49:30;;;;;;;;;;;;;;;-144.99;100.00;52256.50;5034233;28;19925;-74
2022/08/20 05:51:56;;;;;;;;;;;;;;;-144.99;100.00;52260.56;5035700;28;19913;-75
2022/08/20 05:54:23;;;;;;;;;;;;;;;-144.99;100.00;52240.19;5038119;28;19914;-74
2022/08/20 05:56:49;;;;;;;;;;;;;;;-144.99;100.00;52215.75;5037178;28;19924;-75
2022/08/20 05:59:17;;;;;;;;;;;;;;;-144.99;100.00;52244.28;5038642;28;19921;-75
2022/08/20 06:01:44;;;;;;;;;;;;;;;-144.99;100.00;52268.72;5038779;28;19913;-73
2022/08/20 06:04:27;;;;;;;;;;;;;;;-144.99;100.00;52232.03;5031538;28;19997;-74
2022/08/20 06:06:55;;;;;;;;;;;;;;;-144.99;100.00;52252.44;5024809;28;20364;-74
2022/08/20 06:09:22;;;;;;;;;;;;;;;-144.99;100.00;52256.50;5017597;28;19925;-75
2022/08/20 06:11:49;;;;;;;;;;;;;;;-144.99;100.00;52268.72;5013034;28;20500;-73
2022/08/20 06:14:17;;;;;;;;;;;;;;;-144.99;100.00;52256.50;5012149;28;19944;-72
2022/08/20 06:16:44;;;;;;;;;;;;;;;-144.99;100.00;52240.19;5012927;28;19991;-72
2022/08/20 06:19:11;;;;;;;;;;;;;;;-144.99;100.00;52256.50;5013364;28;19928;-73
2022/08/20 06:21:37;;;;;;;;;;;;;;;-144.99;100.00;52232.03;5016201;28;19929;-72
2022/08/20 06:24:04;;;;;;;;;;;;;;;-144.99;100.00;52213.69;5013718;28;20474;-71
2022/08/20 06:26:33;;;;;;;;;;;;;;;-144.99;100.00;52219.81;5014634;28;20020;-72
2022/08/20 06:28:59;;;;;;;;;;;;;;;-144.99;100.00;52232.03;5017789;28;19921;-72
2022/08/20 06:31:27;;;;;;;;;;;;;;;-144.99;100.00;52240.19;5011852;28;20435;-72
2022/08/20 06:33:53;;;;;;;;;;;;;;;-144.99;100.00;52207.59;5013192;28;20325;-72
2022/08/20 06:36:20;;;;;;;;;;;;;;;-144.99;100.00;52225.94;5013354;28;19921;-72
2022/08/20 06:38:46;;;;;;;;;;;;;;;-144.99;100.00;52227.97;5003717;28;19932;-73
2022/08/20 06:41:13;;;;;;;;;;;;;;;-144.99;100.00;52181.09;5010943;28;19933;-73
2022/08/20 06:43:39;;;;;;;;;;;;;;;-144.99;100.00;52215.75;5011458;28;20016;-74
2022/08/20 06:46:06;;;;;;;;;;;;;;;-144.99;100.00;52195.34;5003131;28;20011;-74
2022/08/20 06:48:34;;;;;;;;;;;;;;;-144.99;100.00;52199.44;5009151;28;19932;-74
2022/08/20 06:51:00;;;;;;;;;;;;;;;-144.99;95.23;52207.59;5010554;28;19922;-74
2022/08/20 06:53:27;;;;;;;;;;;;;;;-144.99;90.06;52168.84;5011469;28;19922;-73
2022/08/20 06:55:55;;;;;;;;;;;;;;;-144.99;90.07;52232.03;5009344;28;20532;-74
2022/08/20 06:58:21;;;;;;;;;;;;;;;-144.99;89.02;52215.75;5011114;28;19921;-75
2022/08/20 07:00:48;;;;;;;;;;;;;;;-144.99;87.77;52183.13;5012030;28;19925;-75
2022/08/20 07:03:15;;;;;;;;;;;;;;;-144.99;87.48;52207.59;5014035;28;19922;-74
2022/08/20 07:05:44;;;;;;;;;;;;;;;-144.99;86.60;52177.00;5018743;28;19921;-75
2022/08/20 07:08:12;;;;;;;;;;;;;;;-144.99;85.52;52191.28;5024512;28;19925;-78
2022/08/20 07:10:40;;;;;;;;;;;;;;;-144.99;85.68;52179.06;5018108;28;19929;-78
2022/08/20 07:13:06;;;;;;;;;;;;;;;-144.99;85.10;52191.28;5021343;28;19922;-77
2022/08/20 07:15:33;;;;;;;;;;;;;;;-144.99;83.05;52199.44;5022960;28;19944;-77
2022/08/20 07:18:02;;;;;;;;;;;;;;;-144.99;82.78;52174.97;5021392;28;20423;-76
2022/08/20 07:20:30;;;;;;;;;;;;;;;-144.99;81.36;52213.69;5012890;28;19930;-76
2022/08/20 07:22:58;;;;;;;;;;;;;;;-144.99;79.96;52174.97;5011537;28;19922;-75
2022/08/20 07:25:24;;;;;;;;;;;;;;;-144.99;77.66;52162.75;5010441;28;19928;-75
2022/08/20 07:27:51;;;;;;;;;;;;;;;-144.99;75.19;52179.06;5009938;28;19927;-75
2022/08/20 07:33:03;;;;;;;;;;;;;;;-144.99;72.44;52179.06;5008369;28;20217;-74
2022/08/20 07:35:29;;;;;;;;;;;;;;;-144.99;72.66;52191.28;5009234;28;20296;-74
2022/08/20 07:37:56;;;;;;;;;;;;;;;-144.99;73.23;52174.97;5008557;28;19926;-74
2022/08/20 07:40:26;;;;;;;;;;;;;;;-144.99;72.90;52174.97;5010149;28;19928;-77
2022/08/20 07:42:52;;;;;;;;;;;;;;;-144.99;73.45;52179.06;5014720;28;19928;-76
2022/08/20 07:45:19;;;;;;;;;;;;;;;-144.99;73.22;52201.47;5016683;28;19972;-77
2022/08/20 07:47:47;;;;;;;;;;;;;;;-144.99;72.42;52203.50;5012476;28;20347;-77
2022/08/20 07:50:16;;;;;;;;;;;;;;;-144.99;71.49;52177.00;5009311;28;19969;-77
2022/08/20 07:52:44;;;;;;;;;;;;;;;-144.99;71.49;52199.44;5010402;28;19933;-76
2022/08/20 07:55:11;;;;;;;;;;;;;;;-144.99;71.61;52177.00;5010745;28;20024;-77
2022/08/20 07:57:40;;;;;;;;;;;;;;;-144.99;71.23;52199.44;5008619;28;20435;-76
2022/08/20 08:00:07;;;;;;;;;;;;;;;-144.99;70.85;52244.28;5007963;28;19928;-76
2022/08/20 08:02:35;;;;;;;;;;;;;;;-144.99;70.70;52201.47;5009035;28;19932;-76
2022/08/20 08:05:01;;;;;;;;;;;;;;;-144.99;70.44;52177.00;5010435;28;20388;-77
2022/08/20 08:07:28;;;;;;;;;;;;;;;-144.99;70.71;52183.13;5009517;28;20352;-77
2022/08/20 08:09:55;;;;;;;;;;;;;;;-144.99;70.41;52166.81;5010328;28;19968;-76
2022/08/20 08:12:22;;;;;;;;;;;;;;;-144.99;69.42;52158.66;5008589;28;20331;-75
2022/08/20 08:14:50;;;;;;;;;;;;;;;-144.99;69.07;52170.91;5007767;28;20325;-75
2022/08/20 08:17:18;;;;;;;;;;;;;;;-144.99;67.97;52136.25;5009889;28;20004;-76
2022/08/20 08:19:47;;;;;;;;;;;;;;;-144.99;67.63;52121.97;5010642;28;19927;-76
2022/08/20 08:22:16;;;;;;;28.75;27.15;;;;;;;-144.99;65.84;52174.97;5008949;28;24586;-77
2022/08/20 08:24:43;;;;;;;;;;;;;;;-144.99;63.62;52162.75;5007441;28;20299;-76
2022/08/20 08:27:10;;;;;;;;;;;;;;;-144.99;62.87;52158.66;5003909;28;19965;-75
2022/08/20 08:29:37;;;;;;;;;;;;;;;-144.99;60.89;52146.44;5009461;28;19956;-76
2022/08/20 08:32:05;;;;;;;;;;;;;;;-144.99;59.96;52124.03;5007061;28;19928;-77
2022/08/20 08:34:33;;;;;;;;;;;;;;;-144.99;58.43;52124.03;5009338;28;19947;-76
2022/08/20 08:37:01;;;;;;;;;;;;;;;-144.99;57.57;52150.53;5012864;28;19964;-76
2022/08/20 08:39:29;;;;;;;;;;;;;;;-144.99;57.31;52138.28;5007063;28;20035;-76
2022/08/20 08:41:57;;;;;;;;;;;;;;;-144.99;56.21;52162.75;5009922;28;19924;-76
2022/08/20 08:44:26;;;;;;;;;;;;;;;-144.99;56.68;52154.59;5013873;28;19984;-76
2022/08/20 08:46:55;;;;;;;;;;;;;;;-144.99;56.00;52126.06;5007923;28;19917;-75
2022/08/20 08:49:24;;;;;;;;;;;;;;;-144.99;55.27;52113.84;5038980;22;19959;-81
2022/08/20 08:51:54;;;;;;;;;;;;;;;-144.99;54.81;52097.53;5006955;28;19921;-78
2022/08/20 08:54:23;;;;;;;;;;;;;;;-144.99;54.70;52154.59;5019465;28;19956;-80
2022/08/20 08:56:50;;;;;;;;;;;;;;;-144.99;53.85;52132.19;5016658;28;19929;-81
2022/08/20 08:59:16;;;;;;;;;;;;;;;-144.99;53.95;52174.97;5017418;28;19921;-81
2022/08/20 09:01:45;;;;;;;;;;;;;;;-144.99;53.95;52130.13;5016820;28;19925;-81
2022/08/20 09:04:12;;;;;;;;;;;;;;;-144.99;52.73;52152.56;5017479;28;19922;-82
2022/08/20 09:06:40;;;;;;;;;;;;;;;-144.99;53.07;52138.28;5017830;28;19987;-81
2022/08/20 09:09:11;;;;;;;;;;;;;;;-144.99;51.81;52174.97;5015701;28;24581;-80
2022/08/20 09:11:45;;;;;;;;;;;;;;;-144.99;51.08;52134.22;5015507;28;19925;-80
2022/08/20 09:14:11;;;;;;;;;;;;;;;-144.99;52.04;52154.59;5012484;28;19932;-80
2022/08/20 09:16:38;;;;;;;;;;;;;;;-144.99;52.30;52121.97;5012064;28;20392;-80
2022/08/20 09:19:04;;;;;;;;;;;;;;;-144.99;51.66;52126.06;5004502;28;19926;-80
2022/08/20 09:21:31;;;;;;;;;;;;;;;-144.99;51.15;52130.13;5016014;28;20009;-81
2022/08/20 09:23:59;;;;;;;;;;;;;;;-144.99;51.20;52130.13;5016746;28;19992;-81
2022/08/20 09:26:25;;;;;;;;;;;;;;;-144.99;50.91;52113.84;5018962;28;19925;-82
2022/08/20 09:28:52;;;;;;;;;;;;;;;-144.99;50.23;52109.75;5015368;28;19925;-81
2022/08/20 09:31:18;;;;;;;;;;;;;;;-144.99;49.98;52089.38;5012512;28;19929;-82
2022/08/20 09:33:45;;;;;;;;;;;;;;;-144.99;49.80;52109.75;5021440;28;19937;-80
2022/08/20 09:36:11;;;;;;;;;;;;;;;-144.99;50.05;52121.97;5012650;28;19926;-80
2022/08/20 09:38:38;;;;;;;;;;;;;;;-144.99;50.31;52105.69;5016309;28;19937;-82
2022/08/20 09:41:06;;;;;;;;;;;;;;;-144.99;50.79;52117.91;5029451;28;19926;-80
2022/08/20 09:43:32;;;;;;;;;;;;;;;-144.99;51.00;52126.06;5016961;28;19932;-82
2022/08/20 09:45:59;;;;;;;;;;;;;;;-144.99;50.61;52073.06;5015294;28;19933;-81
2022/08/20 09:48:25;;;;;;;;;;;;;;;-144.99;49.28;52069.00;5015161;28;20400;-81
2022/08/20 09:50:52;;;;;;;;;;;;;;;-144.99;48.35;52093.44;5007457;28;20349;-79
2022/08/20 09:53:20;;;;;;;;;;;;;;;-144.99;47.57;52073.06;5014248;28;19929;-83
2022/08/20 09:55:51;;;;;;;65.93;58.58;;;;;;;-144.99;47.20;52097.53;5014945;28;24429;-80
2022/08/20 09:58:20;;;;;;;;;;;;;;;-144.99;46.79;52056.78;5016544;28;20604;-80
2022/08/20 10:00:48;;;;;;;62.83;56.50;;;;;;;-144.99;46.39;52048.63;5013689;28;24472;-81
2022/08/20 10:03:15;;;;;;;;;;;;;;;-144.99;45.07;52052.69;5015145;28;20242;-80
2022/08/20 10:05:41;;;;;;;;;;;;;;;-144.99;43.84;52069.00;5015146;28;19987;-79
2022/08/20 10:08:09;;;;;;;;;;;;;;;-144.99;43.54;52032.31;5004804;28;19933;-80
2022/08/20 10:10:35;;;;;;;;;;;;;;;-144.99;43.31;52044.53;5015657;28;19923;-80
2022/08/20 10:13:02;;;;;;;;;;;;;;;-144.99;42.98;52005.81;5016642;28;19917;-79
2022/08/20 10:15:30;;;;;;;;;;;;;;;-144.99;42.70;52036.38;5018061;28;20379;-81
2022/08/20 10:17:57;;;;;;;;;;;;;;;-144.99;41.87;51987.47;5016829;28;19917;-80
2022/08/20 10:20:24;;;;;;;;;;;;;;;-144.99;41.46;52016.00;5014977;28;20462;-81
2022/08/20 10:22:51;;;;;;;;;;;;;;;-144.99;40.54;51967.09;5014451;28;20118;-81
2022/08/20 10:25:18;;;;;;;;;;;;;;;-144.99;41.00;52036.38;5015079;28;19925;-80
2022/08/20 10:27:44;;;;;;;;;;;;;;;-144.99;39.40;51983.41;5009112;28;19973;-80
2022/08/20 10:30:11;;;;;;;;;;;;;;;-144.99;38.64;51979.31;5014441;28;20199;-81
2022/08/20 10:32:39;;;;;;;;;;;;;;;-144.99;38.62;51965.06;5010669;28;19939;-81
2022/08/20 10:35:06;;;;;;;;;;;;;;;-144.99;38.83;51971.16;5010594;28;19925;-80
2022/08/20 10:37:33;;;;;;;;;;;;;;;-144.99;38.09;51999.69;5022042;28;19909;-84
2022/08/20 10:40:00;;;;;;;;;;;;;;;-144.99;38.07;52007.84;5032618;28;19931;-82
2022/08/20 10:42:27;;;;;;;;;;;;;;;-144.99;38.36;51991.56;5021212;28;20034;-81
2022/08/20 10:44:53;;;;;;;;;;;;;;;-144.99;38.81;52016.00;5018314;28;19947;-81
2022/08/20 10:47:21;;;;;;;;;;;;;;;-144.99;39.19;52050.66;5023486;28;19975;-80
2022/08/20 10:49:49;;;;;;;;;;;;;;;-144.99;39.50;52073.06;5014034;28;20281;-82
2022/08/20 10:52:16;;;;;;;;;;;;;;;-144.99;39.90;52048.63;5013307;28;20088;-82
2022/08/20 10:54:42;;;;;;;;;;;;;;;-144.99;39.65;51946.72;5019969;28;20423;-81
2022/08/20 10:57:09;;;;;;;;;;;;;;;-144.99;40.04;52048.63;5019004;28;19983;-81
2022/08/20 10:59:39;;;;;;;;;;;;;;;-144.99;40.13;52073.06;5022165;28;19968;-82
2022/08/20 11:02:05;;;;;;;;;;;;;;;-144.99;39.73;51991.56;5017498;28;20129;-82
2022/08/20 11:04:32;;;;;;;;;;;;;;;-144.99;39.98;52066.97;5015723;28;20041;-82
2022/08/20 11:07:09;;;;;;;;;;;;;;;-144.99;39.45;52069.00;5014621;28;19976;-80
2022/08/20 11:09:35;;;;;;;;;;;;;;;-144.99;38.99;52032.31;5013630;28;20335;-81
2022/08/20 11:12:02;;;;;;;;;;;;;;;-144.99;38.70;52040.47;5020099;28;19956;-81
2022/08/20 11:14:29;;;;;;;;;;;;;;;-144.99;38.07;51942.63;5018050;28;20412;-82
2022/08/20 11:16:55;;;;;;;;;;;;;;;-144.99;37.62;51934.50;5015547;28;19944;-83
2022/08/20 11:19:21;;;;;;;;;;;;;;;-144.99;37.15;51936.53;5006999;28;20404;-81
2022/08/20 11:21:48;;;;;;;;;;;;;;;-144.99;36.22;51901.88;5010036;28;20381;-82
2022/08/20 11:24:17;;;;;;;;;;;;;;;-144.99;36.27;51879.47;5008434;28;20443;-82
2022/08/20 11:26:45;;;;;;;;;;;;;;;-144.99;35.27;51905.97;5015782;28;20034;-82
2022/08/20 11:29:12;;;;;;;;;;;;;;;-144.99;35.56;51912.06;5015821;28;19925;-82
2022/08/20 11:31:38;;;;;;;;;;;;;;;-144.99;35.49;51938.56;5015797;28;19943;-84
2022/08/20 11:34:05;;;;;;;;;;;;;;;-144.99;35.09;51899.84;5018899;28;19917;-81
2022/08/20 11:36:31;;;;;;;;;;;;;;;-144.99;34.75;51905.97;5015764;28;20767;-82
2022/08/20 11:38:58;;;;;;;;;;;;;;;-144.99;35.47;51940.59;5018064;28;19918;-82
2022/08/20 11:41:26;;;;;;;;;;;;;;;-144.99;35.21;51897.81;5019745;28;19960;-81
2022/08/20 11:43:52;;;;;;;;;;;;;;;-144.99;35.56;51885.56;5015334;28;19917;-82
2022/08/20 11:46:18;;;;;;;;;;;;;;;-144.99;35.10;51918.19;5016057;28;19953;-82
2022/08/20 11:48:45;;;;;;;;;;;;;;;-144.99;35.10;51867.22;5018791;28;20272;-81
2022/08/20 11:51:11;;;;;;;;;;;;;;;-144.99;34.72;51885.56;5013914;28;20308;-79
2022/08/20 11:53:38;;;;;;;;;;;;;;;-144.99;33.89;51867.22;5022911;28;19971;-83
2022/08/20 11:56:04;;;;;;;;;;;;;;;-144.99;34.01;51873.34;5023413;28;19956;-81
2022/08/20 11:58:32;;;;;;;;;;;;;;;-144.99;33.45;51889.66;5020049;28;19956;-80
2022/08/20 12:00:59;;;;;;;;;;;;;;;-144.99;33.64;51938.56;5016676;28;19959;-81
2022/08/20 12:03:25;;;;;;;;;;;;;;;-144.99;33.85;51969.13;5014195;28;19921;-79
2022/08/20 12:05:52;;;;;;;;;;;;;;;-144.99;34.32;51963.03;5013349;28;19955;-81
2022/08/20 12:08:18;;;;;;;;;;;;;;;-144.99;34.87;51963.03;5020561;28;19922;-82
2022/08/20 12:10:45;;;;;;;;;;;;;;;-144.99;35.42;51971.16;5022478;28;19929;-80
2022/08/20 12:13:11;;;;;;;;;;;;;;;-144.99;35.46;51979.31;5024724;28;20079;-80
2022/08/20 12:15:39;;;;;;;;;;;;;;;-144.99;36.12;51971.16;5022039;28;20048;-80
2022/08/20 12:18:06;;;;;;;;;;;;;;;-144.99;36.05;51983.41;5025806;28;19917;-83
2022/08/20 12:20:32;;;;;;;;;;;;;;;-144.99;36.04;51946.72;5026371;28;19949;-82
2022/08/20 12:22:59;;;;;;;;;;;;;;;-144.99;36.10;51934.50;5023707;28;19924;-81
2022/08/20 12:25:25;;;;;;;;;;;;;;;-144.99;36.29;51926.34;5024995;28;19956;-83
2022/08/20 12:27:52;;;;;;;;;;;;;;;-144.99;36.50;51934.50;5020973;28;19944;-82